sensor_id;sensor_type;location;lat;lon;timestamp;P1;durP1;ratioP1;P2;durP2;ratioP2
36185;SDS011;22228;53.222;7.446;2022-07-23T00:00:15;3.97;;;3.07;;
36185;SDS011;22228;53.222;7.446;2022-07-23T00:02:37;6.33;;;3.17;;
36185;SDS011;22228;53.222;7.446;2022-07-23T00:04:59;3.67;;;3.37;;
36185;SDS011;22228;53.222;7.446;2022-07-23T00:07:23;4.03;;;3.37;;
36185;SDS011;22228;53.222;7.446;2022-07-23T00:09:44;3.03;;;2.70;;
36185;SDS011;22228;53.222;7.446;2022-07-23T00:12:06;3.57;;;2.50;;
36185;SDS011;22228;53.222;7.446;2022-07-23T00:14:28;2.40;;;2.20;;
36185;SDS011;22228;53.222;7.446;2022-07-23T00:16:51;7.00;;;2.57;;
36185;SDS011;22228;53.222;7.446;2022-07-23T00:19:13;7.70;;;2.43;;
36185;SDS011;22228;53.222;7.446;2022-07-23T00:21:35;8.63;;;2.53;;
36185;SDS011;22228;53.222;7.446;2022-07-23T00:23:59;2.40;;;2.23;;
36185;SDS011;22228;53.222;7.446;2022-07-23T00:26:21;5.93;;;2.63;;
36185;SDS011;22228;53.222;7.446;2022-07-23T00:28:42;4.33;;;2.43;;
36185;SDS011;22228;53.222;7.446;2022-07-23T00:31:04;5.03;;;2.50;;
36185;SDS011;22228;53.222;7.446;2022-07-23T00:33:26;3.13;;;2.17;;
36185;SDS011;22228;53.222;7.446;2022-07-23T00:35:48;2.13;;;1.60;;
36185;SDS011;22228;53.222;7.446;2022-07-23T00:38:10;2.00;;;1.90;;
36185;SDS011;22228;53.222;7.446;2022-07-23T00:40:34;7.00;;;2.20;;
36185;SDS011;22228;53.222;7.446;2022-07-23T00:42:56;4.43;;;2.10;;
36185;SDS011;22228;53.222;7.446;2022-07-23T00:45:20;4.73;;;1.90;;
36185;SDS011;22228;53.222;7.446;2022-07-23T00:47:42;3.53;;;1.60;;
36185;SDS011;22228;53.222;7.446;2022-07-23T00:50:05;2.47;;;1.73;;
36185;SDS011;22228;53.222;7.446;2022-07-23T00:52:28;4.63;;;1.93;;
36185;SDS011;22228;53.222;7.446;2022-07-23T00:54:50;3.63;;;2.07;;
36185;SDS011;22228;53.222;7.446;2022-07-23T00:57:14;3.10;;;1.80;;
36185;SDS011;22228;53.222;7.446;2022-07-23T00:59:38;3.93;;;2.10;;
36185;SDS011;22228;53.222;7.446;2022-07-23T01:02:00;2.20;;;2.00;;
36185;SDS011;22228;53.222;7.446;2022-07-23T01:04:24;2.63;;;2.50;;
36185;SDS011;22228;53.222;7.446;2022-07-23T01:06:46;3.13;;;2.40;;
36185;SDS011;22228;53.222;7.446;2022-07-23T01:09:08;3.63;;;2.30;;
36185;SDS011;22228;53.222;7.446;2022-07-23T01:11:31;5.67;;;2.40;;
36185;SDS011;22228;53.222;7.446;2022-07-23T01:13:55;3.77;;;2.57;;
36185;SDS011;22228;53.222;7.446;2022-07-23T01:16:17;4.23;;;2.87;;
36185;SDS011;22228;53.222;7.446;2022-07-23T01:18:40;3.70;;;2.60;;
36185;SDS011;22228;53.222;7.446;2022-07-23T01:21:02;2.80;;;2.40;;
36185;SDS011;22228;53.222;7.446;2022-07-23T01:23:25;5.00;;;2.73;;
36185;SDS011;22228;53.222;7.446;2022-07-23T01:25:52;4.87;;;2.80;;
36185;SDS011;22228;53.222;7.446;2022-07-23T01:28:16;3.10;;;2.90;;
36185;SDS011;22228;53.222;7.446;2022-07-23T01:30:38;4.17;;;2.47;;
36185;SDS011;22228;53.222;7.446;2022-07-23T01:33:01;4.23;;;2.63;;
36185;SDS011;22228;53.222;7.446;2022-07-23T01:35:23;3.20;;;2.73;;
36185;SDS011;22228;53.222;7.446;2022-07-23T01:37:48;4.23;;;2.67;;
36185;SDS011;22228;53.222;7.446;2022-07-23T01:40:13;5.43;;;2.43;;
36185;SDS011;22228;53.222;7.446;2022-07-23T01:42:35;4.07;;;3.10;;
36185;SDS011;22228;53.222;7.446;2022-07-23T01:44:59;4.83;;;2.97;;
36185;SDS011;22228;53.222;7.446;2022-07-23T01:47:21;4.93;;;2.97;;
36185;SDS011;22228;53.222;7.446;2022-07-23T01:49:46;5.17;;;3.03;;
36185;SDS011;22228;53.222;7.446;2022-07-23T01:52:27;2.73;;;2.63;;
36185;SDS011;22228;53.222;7.446;2022-07-23T01:54:49;5.03;;;3.13;;
36185;SDS011;22228;53.222;7.446;2022-07-23T01:57:12;6.07;;;3.30;;
36185;SDS011;22228;53.222;7.446;2022-07-23T01:59:34;4.43;;;2.77;;
36185;SDS011;22228;53.222;7.446;2022-07-23T02:01:58;2.70;;;2.33;;
36185;SDS011;22228;53.222;7.446;2022-07-23T02:04:21;4.53;;;2.17;;
36185;SDS011;22228;53.222;7.446;2022-07-23T02:06:45;4.27;;;1.67;;
36185;SDS011;22228;53.222;7.446;2022-07-23T02:09:07;2.03;;;1.77;;
36185;SDS011;22228;53.222;7.446;2022-07-23T02:11:29;2.47;;;1.60;;
36185;SDS011;22228;53.222;7.446;2022-07-23T02:13:52;4.07;;;1.67;;
36185;SDS011;22228;53.222;7.446;2022-07-23T02:16:14;3.10;;;1.67;;
36185;SDS011;22228;53.222;7.446;2022-07-23T02:18:36;2.83;;;1.63;;
36185;SDS011;22228;53.222;7.446;2022-07-23T02:20:58;4.60;;;1.50;;
36185;SDS011;22228;53.222;7.446;2022-07-23T02:23:21;3.47;;;1.50;;
36185;SDS011;22228;53.222;7.446;2022-07-23T02:25:43;2.93;;;1.50;;
36185;SDS011;22228;53.222;7.446;2022-07-23T02:28:05;1.40;;;1.30;;
36185;SDS011;22228;53.222;7.446;2022-07-23T02:30:29;2.47;;;1.20;;
36185;SDS011;22228;53.222;7.446;2022-07-23T02:32:51;1.13;;;1.03;;
36185;SDS011;22228;53.222;7.446;2022-07-23T02:35:13;1.20;;;1.10;;
36185;SDS011;22228;53.222;7.446;2022-07-23T02:37:35;1.87;;;1.10;;
36185;SDS011;22228;53.222;7.446;2022-07-23T02:39:57;2.77;;;1.20;;
36185;SDS011;22228;53.222;7.446;2022-07-23T02:42:19;2.33;;;1.30;;
36185;SDS011;22228;53.222;7.446;2022-07-23T02:44:41;1.43;;;1.10;;
36185;SDS011;22228;53.222;7.446;2022-07-23T02:47:05;1.43;;;0.93;;
36185;SDS011;22228;53.222;7.446;2022-07-23T02:49:27;3.07;;;1.20;;
36185;SDS011;22228;53.222;7.446;2022-07-23T02:51:50;1.63;;;1.30;;
36185;SDS011;22228;53.222;7.446;2022-07-23T02:54:12;2.73;;;1.47;;
36185;SDS011;22228;53.222;7.446;2022-07-23T02:56:34;2.50;;;1.50;;
36185;SDS011;22228;53.222;7.446;2022-07-23T02:58:56;3.37;;;1.30;;
36185;SDS011;22228;53.222;7.446;2022-07-23T03:01:19;1.70;;;1.47;;
36185;SDS011;22228;53.222;7.446;2022-07-23T03:03:42;1.60;;;1.50;;
36185;SDS011;22228;53.222;7.446;2022-07-23T03:06:04;2.13;;;1.50;;
36185;SDS011;22228;53.222;7.446;2022-07-23T03:08:28;2.00;;;1.20;;
36185;SDS011;22228;53.222;7.446;2022-07-23T03:10:50;2.40;;;1.43;;
36185;SDS011;22228;53.222;7.446;2022-07-23T03:13:12;1.77;;;1.27;;
36185;SDS011;22228;53.222;7.446;2022-07-23T03:15:34;4.50;;;1.30;;
36185;SDS011;22228;53.222;7.446;2022-07-23T03:17:58;3.57;;;1.57;;
36185;SDS011;22228;53.222;7.446;2022-07-23T03:20:23;1.47;;;1.37;;
36185;SDS011;22228;53.222;7.446;2022-07-23T03:22:46;3.43;;;1.57;;
36185;SDS011;22228;53.222;7.446;2022-07-23T03:25:10;1.63;;;1.53;;
36185;SDS011;22228;53.222;7.446;2022-07-23T03:27:32;2.03;;;1.40;;
36185;SDS011;22228;53.222;7.446;2022-07-23T03:29:55;3.07;;;1.87;;
36185;SDS011;22228;53.222;7.446;2022-07-23T03:32:18;3.00;;;2.77;;
36185;SDS011;22228;53.222;7.446;2022-07-23T03:34:40;3.47;;;3.03;;
36185;SDS011;22228;53.222;7.446;2022-07-23T03:37:04;2.73;;;2.30;;
36185;SDS011;22228;53.222;7.446;2022-07-23T03:39:28;2.37;;;2.03;;
36185;SDS011;22228;53.222;7.446;2022-07-23T03:41:50;2.60;;;2.10;;
36185;SDS011;22228;53.222;7.446;2022-07-23T03:44:12;2.60;;;2.40;;
36185;SDS011;22228;53.222;7.446;2022-07-23T03:46:35;4.03;;;3.77;;
36185;SDS011;22228;53.222;7.446;2022-07-23T03:48:57;5.70;;;4.40;;
36185;SDS011;22228;53.222;7.446;2022-07-23T03:51:19;5.23;;;4.03;;
36185;SDS011;22228;53.222;7.446;2022-07-23T03:53:42;4.90;;;4.13;;
36185;SDS011;22228;53.222;7.446;2022-07-23T03:56:04;7.63;;;5.40;;
36185;SDS011;22228;53.222;7.446;2022-07-23T03:58:27;4.97;;;4.67;;
36185;SDS011;22228;53.222;7.446;2022-07-23T04:00:49;6.57;;;5.97;;
36185;SDS011;22228;53.222;7.446;2022-07-23T04:03:11;6.37;;;5.23;;
36185;SDS011;22228;53.222;7.446;2022-07-23T04:05:34;6.20;;;5.70;;
36185;SDS011;22228;53.222;7.446;2022-07-23T04:07:59;5.57;;;5.00;;
36185;SDS011;22228;53.222;7.446;2022-07-23T04:10:23;7.17;;;6.47;;
36185;SDS011;22228;53.222;7.446;2022-07-23T04:12:45;12.90;;;7.20;;
36185;SDS011;22228;53.222;7.446;2022-07-23T04:15:07;9.63;;;7.70;;
36185;SDS011;22228;53.222;7.446;2022-07-23T04:17:30;8.10;;;7.30;;
36185;SDS011;22228;53.222;7.446;2022-07-23T04:19:52;10.80;;;7.50;;
36185;SDS011;22228;53.222;7.446;2022-07-23T04:22:17;8.60;;;7.50;;
36185;SDS011;22228;53.222;7.446;2022-07-23T04:24:40;7.47;;;6.73;;
36185;SDS011;22228;53.222;7.446;2022-07-23T04:27:06;7.77;;;7.07;;
36185;SDS011;22228;53.222;7.446;2022-07-23T04:29:30;8.17;;;6.80;;
36185;SDS011;22228;53.222;7.446;2022-07-23T04:31:52;8.33;;;7.30;;
36185;SDS011;22228;53.222;7.446;2022-07-23T04:34:14;8.23;;;7.40;;
36185;SDS011;22228;53.222;7.446;2022-07-23T04:36:37;8.17;;;7.13;;
36185;SDS011;22228;53.222;7.446;2022-07-23T04:38:58;8.53;;;7.37;;
36185;SDS011;22228;53.222;7.446;2022-07-23T04:41:21;8.20;;;6.67;;
36185;SDS011;22228;53.222;7.446;2022-07-23T04:43:46;7.23;;;6.40;;
36185;SDS011;22228;53.222;7.446;2022-07-23T04:46:28;7.03;;;6.33;;
36185;SDS011;22228;53.222;7.446;2022-07-23T04:48:51;8.13;;;6.13;;
36185;SDS011;22228;53.222;7.446;2022-07-23T04:51:13;7.13;;;6.00;;
36185;SDS011;22228;53.222;7.446;2022-07-23T04:53:36;6.70;;;6.13;;
36185;SDS011;22228;53.222;7.446;2022-07-23T04:55:59;6.50;;;6.10;;
36185;SDS011;22228;53.222;7.446;2022-07-23T04:58:23;8.23;;;6.00;;
36185;SDS011;22228;53.222;7.446;2022-07-23T05:00:46;6.47;;;5.63;;
36185;SDS011;22228;53.222;7.446;2022-07-23T05:03:09;7.13;;;6.27;;
36185;SDS011;22228;53.222;7.446;2022-07-23T05:05:32;6.00;;;5.43;;
36185;SDS011;22228;53.222;7.446;2022-07-23T05:08:02;6.80;;;6.03;;
36185;SDS011;22228;53.222;7.446;2022-07-23T05:10:25;6.03;;;4.70;;
36185;SDS011;22228;53.222;7.446;2022-07-23T05:12:47;5.30;;;4.77;;
36185;SDS011;22228;53.222;7.446;2022-07-23T05:15:09;5.73;;;5.10;;
36185;SDS011;22228;53.222;7.446;2022-07-23T05:17:33;5.93;;;5.33;;
36185;SDS011;22228;53.222;7.446;2022-07-23T05:20:03;5.03;;;4.63;;
36185;SDS011;22228;53.222;7.446;2022-07-23T05:22:27;6.07;;;4.80;;
36185;SDS011;22228;53.222;7.446;2022-07-23T05:24:48;5.50;;;4.77;;
36185;SDS011;22228;53.222;7.446;2022-07-23T05:27:10;4.93;;;4.53;;
36185;SDS011;22228;53.222;7.446;2022-07-23T05:29:33;4.93;;;4.37;;
36185;SDS011;22228;53.222;7.446;2022-07-23T05:31:55;4.93;;;4.53;;
36185;SDS011;22228;53.222;7.446;2022-07-23T05:34:18;8.03;;;4.40;;
36185;SDS011;22228;53.222;7.446;2022-07-23T05:36:41;5.00;;;4.17;;
36185;SDS011;22228;53.222;7.446;2022-07-23T05:39:04;4.27;;;3.87;;
36185;SDS011;22228;53.222;7.446;2022-07-23T05:41:29;3.80;;;3.23;;
36185;SDS011;22228;53.222;7.446;2022-07-23T05:43:52;4.47;;;4.07;;
36185;SDS011;22228;53.222;7.446;2022-07-23T05:46:15;6.53;;;4.07;;
36185;SDS011;22228;53.222;7.446;2022-07-23T05:48:42;4.03;;;3.60;;
36185;SDS011;22228;53.222;7.446;2022-07-23T05:51:28;6.27;;;4.03;;
36185;SDS011;22228;53.222;7.446;2022-07-23T05:53:50;7.77;;;3.73;;
36185;SDS011;22228;53.222;7.446;2022-07-23T05:56:14;7.73;;;4.03;;
36185;SDS011;22228;53.222;7.446;2022-07-23T05:58:37;4.07;;;3.63;;
36185;SDS011;22228;53.222;7.446;2022-07-23T06:01:00;4.07;;;3.77;;
36185;SDS011;22228;53.222;7.446;2022-07-23T06:03:27;3.93;;;3.63;;
36185;SDS011;22228;53.222;7.446;2022-07-23T06:05:50;4.27;;;3.70;;
36185;SDS011;22228;53.222;7.446;2022-07-23T06:08:13;3.90;;;3.63;;
36185;SDS011;22228;53.222;7.446;2022-07-23T06:10:35;3.57;;;3.23;;
36185;SDS011;22228;53.222;7.446;2022-07-23T06:12:58;4.33;;;3.60;;
36185;SDS011;22228;53.222;7.446;2022-07-23T06:15:23;4.57;;;3.73;;
36185;SDS011;22228;53.222;7.446;2022-07-23T06:17:45;5.13;;;3.73;;
36185;SDS011;22228;53.222;7.446;2022-07-23T06:20:08;5.67;;;3.87;;
36185;SDS011;22228;53.222;7.446;2022-07-23T06:22:32;4.13;;;3.77;;
36185;SDS011;22228;53.222;7.446;2022-07-23T06:24:56;4.37;;;3.97;;
36185;SDS011;22228;53.222;7.446;2022-07-23T06:27:17;4.50;;;4.00;;
36185;SDS011;22228;53.222;7.446;2022-07-23T06:29:45;6.00;;;4.37;;
36185;SDS011;22228;53.222;7.446;2022-07-23T06:32:08;3.90;;;3.60;;
36185;SDS011;22228;53.222;7.446;2022-07-23T06:34:30;3.77;;;3.37;;
36185;SDS011;22228;53.222;7.446;2022-07-23T06:36:53;3.80;;;3.50;;
36185;SDS011;22228;53.222;7.446;2022-07-23T06:39:14;3.50;;;3.20;;
36185;SDS011;22228;53.222;7.446;2022-07-23T06:41:42;3.83;;;3.50;;
36185;SDS011;22228;53.222;7.446;2022-07-23T06:44:10;3.73;;;2.90;;
36185;SDS011;22228;53.222;7.446;2022-07-23T06:46:35;4.63;;;2.70;;
36185;SDS011;22228;53.222;7.446;2022-07-23T06:48:57;4.93;;;3.00;;
36185;SDS011;22228;53.222;7.446;2022-07-23T06:51:22;4.70;;;3.13;;
36185;SDS011;22228;53.222;7.446;2022-07-23T06:53:44;3.13;;;2.20;;
36185;SDS011;22228;53.222;7.446;2022-07-23T06:56:06;2.03;;;1.90;;
36185;SDS011;22228;53.222;7.446;2022-07-23T06:58:29;2.83;;;2.13;;
36185;SDS011;22228;53.222;7.446;2022-07-23T07:00:52;2.93;;;2.70;;
36185;SDS011;22228;53.222;7.446;2022-07-23T07:03:14;3.13;;;2.57;;
36185;SDS011;22228;53.222;7.446;2022-07-23T07:05:38;3.73;;;2.73;;
36185;SDS011;22228;53.222;7.446;2022-07-23T07:08:01;2.97;;;2.47;;
36185;SDS011;22228;53.222;7.446;2022-07-23T07:10:23;3.93;;;2.90;;
36185;SDS011;22228;53.222;7.446;2022-07-23T07:12:45;2.73;;;2.37;;
36185;SDS011;22228;53.222;7.446;2022-07-23T07:15:08;2.63;;;2.43;;
36185;SDS011;22228;53.222;7.446;2022-07-23T07:17:31;4.80;;;2.90;;
36185;SDS011;22228;53.222;7.446;2022-07-23T07:19:53;4.63;;;2.50;;
36185;SDS011;22228;53.222;7.446;2022-07-23T07:22:15;4.97;;;2.40;;
36185;SDS011;22228;53.222;7.446;2022-07-23T07:24:37;2.27;;;2.13;;
36185;SDS011;22228;53.222;7.446;2022-07-23T07:26:59;3.40;;;0.97;;
36185;SDS011;22228;53.222;7.446;2022-07-23T07:29:21;1.90;;;0.80;;
36185;SDS011;22228;53.222;7.446;2022-07-23T07:31:44;1.40;;;0.60;;
36185;SDS011;22228;53.222;7.446;2022-07-23T07:34:06;1.60;;;0.50;;
36185;SDS011;22228;53.222;7.446;2022-07-23T07:36:29;0.70;;;0.67;;
36185;SDS011;22228;53.222;7.446;2022-07-23T07:38:51;0.50;;;0.50;;
36185;SDS011;22228;53.222;7.446;2022-07-23T07:41:12;1.47;;;0.50;;
36185;SDS011;22228;53.222;7.446;2022-07-23T07:43:34;0.40;;;0.40;;
36185;SDS011;22228;53.222;7.446;2022-07-23T07:45:56;0.97;;;0.40;;
36185;SDS011;22228;53.222;7.446;2022-07-23T07:48:23;0.60;;;0.37;;
36185;SDS011;22228;53.222;7.446;2022-07-23T07:50:45;1.00;;;0.30;;
36185;SDS011;22228;53.222;7.446;2022-07-23T07:53:08;0.80;;;0.40;;
36185;SDS011;22228;53.222;7.446;2022-07-23T07:55:31;0.70;;;0.40;;
36185;SDS011;22228;53.222;7.446;2022-07-23T07:57:53;1.30;;;1.20;;
36185;SDS011;22228;53.222;7.446;2022-07-23T08:00:16;3.97;;;1.87;;
36185;SDS011;22228;53.222;7.446;2022-07-23T08:02:40;1.83;;;0.50;;
36185;SDS011;22228;53.222;7.446;2022-07-23T08:05:07;0.83;;;0.40;;
36185;SDS011;22228;53.222;7.446;2022-07-23T08:07:30;1.67;;;0.40;;
36185;SDS011;22228;53.222;7.446;2022-07-23T08:09:52;1.50;;;0.43;;
36185;SDS011;22228;53.222;7.446;2022-07-23T08:12:14;0.73;;;0.37;;
36185;SDS011;22228;53.222;7.446;2022-07-23T08:14:35;0.57;;;0.40;;
36185;SDS011;22228;53.222;7.446;2022-07-23T08:16:57;1.60;;;0.50;;
36185;SDS011;22228;53.222;7.446;2022-07-23T08:19:35;0.70;;;0.60;;
36185;SDS011;22228;53.222;7.446;2022-07-23T08:21:58;1.00;;;0.40;;
36185;SDS011;22228;53.222;7.446;2022-07-23T08:24:20;2.00;;;0.40;;
36185;SDS011;22228;53.222;7.446;2022-07-23T08:26:42;2.20;;;0.50;;
36185;SDS011;22228;53.222;7.446;2022-07-23T08:29:04;1.53;;;0.40;;
36185;SDS011;22228;53.222;7.446;2022-07-23T08:31:26;1.47;;;0.60;;
36185;SDS011;22228;53.222;7.446;2022-07-23T08:33:48;2.03;;;0.30;;
36185;SDS011;22228;53.222;7.446;2022-07-23T08:36:10;0.70;;;0.37;;
36185;SDS011;22228;53.222;7.446;2022-07-23T08:38:34;0.50;;;0.30;;
36185;SDS011;22228;53.222;7.446;2022-07-23T08:40:56;1.17;;;0.30;;
36185;SDS011;22228;53.222;7.446;2022-07-23T08:43:20;1.23;;;0.40;;
36185;SDS011;22228;53.222;7.446;2022-07-23T08:45:45;0.70;;;0.30;;
36185;SDS011;22228;53.222;7.446;2022-07-23T08:48:09;1.07;;;0.30;;
36185;SDS011;22228;53.222;7.446;2022-07-23T08:50:34;0.93;;;0.20;;
36185;SDS011;22228;53.222;7.446;2022-07-23T08:52:58;1.27;;;0.40;;
36185;SDS011;22228;53.222;7.446;2022-07-23T08:55:24;0.50;;;0.30;;
36185;SDS011;22228;53.222;7.446;2022-07-23T08:57:47;0.30;;;0.30;;
36185;SDS011;22228;53.222;7.446;2022-07-23T09:00:10;1.17;;;0.30;;
36185;SDS011;22228;53.222;7.446;2022-07-23T09:02:40;1.00;;;0.23;;
36185;SDS011;22228;53.222;7.446;2022-07-23T09:05:03;1.47;;;0.20;;
36185;SDS011;22228;53.222;7.446;2022-07-23T09:07:26;0.40;;;0.30;;
36185;SDS011;22228;53.222;7.446;2022-07-23T09:09:50;0.30;;;0.23;;
36185;SDS011;22228;53.222;7.446;2022-07-23T09:12:28;1.80;;;0.30;;
36185;SDS011;22228;53.222;7.446;2022-07-23T09:14:50;0.83;;;0.30;;
36185;SDS011;22228;53.222;7.446;2022-07-23T09:17:13;0.40;;;0.30;;
36185;SDS011;22228;53.222;7.446;2022-07-23T09:19:37;2.00;;;0.30;;
36185;SDS011;22228;53.222;7.446;2022-07-23T09:22:13;1.47;;;0.30;;
36185;SDS011;22228;53.222;7.446;2022-07-23T09:24:38;1.13;;;0.40;;
36185;SDS011;22228;53.222;7.446;2022-07-23T09:27:23;0.30;;;0.30;;
36185;SDS011;22228;53.222;7.446;2022-07-23T09:30:14;2.30;;;0.60;;
36185;SDS011;22228;53.222;7.446;2022-07-23T09:32:36;0.53;;;0.30;;
36185;SDS011;22228;53.222;7.446;2022-07-23T09:34:59;1.63;;;0.60;;
36185;SDS011;22228;53.222;7.446;2022-07-23T09:37:21;1.80;;;0.93;;
36185;SDS011;22228;53.222;7.446;2022-07-23T09:39:45;2.23;;;0.83;;
36185;SDS011;22228;53.222;7.446;2022-07-23T09:42:12;0.67;;;0.47;;
36185;SDS011;22228;53.222;7.446;2022-07-23T09:44:36;0.40;;;0.30;;
36185;SDS011;22228;53.222;7.446;2022-07-23T09:47:03;1.33;;;0.40;;
36185;SDS011;22228;53.222;7.446;2022-07-23T09:49:28;0.77;;;0.40;;
36185;SDS011;22228;53.222;7.446;2022-07-23T09:51:52;0.70;;;0.40;;
36185;SDS011;22228;53.222;7.446;2022-07-23T09:54:21;0.63;;;0.20;;
36185;SDS011;22228;53.222;7.446;2022-07-23T09:56:48;0.93;;;0.40;;
36185;SDS011;22228;53.222;7.446;2022-07-23T09:59:12;0.50;;;0.30;;
36185;SDS011;22228;53.222;7.446;2022-07-23T10:01:36;1.50;;;0.30;;
36185;SDS011;22228;53.222;7.446;2022-07-23T10:03:59;1.00;;;0.30;;
36185;SDS011;22228;53.222;7.446;2022-07-23T10:06:45;1.07;;;0.30;;
36185;SDS011;22228;53.222;7.446;2022-07-23T10:09:27;3.67;;;0.30;;
36185;SDS011;22228;53.222;7.446;2022-07-23T10:12:08;1.13;;;0.40;;
36185;SDS011;22228;53.222;7.446;2022-07-23T10:14:47;1.43;;;0.30;;
36185;SDS011;22228;53.222;7.446;2022-07-23T10:17:12;2.10;;;0.30;;
36185;SDS011;22228;53.222;7.446;2022-07-23T10:19:35;0.57;;;0.30;;
36185;SDS011;22228;53.222;7.446;2022-07-23T10:21:58;0.87;;;0.40;;
36185;SDS011;22228;53.222;7.446;2022-07-23T10:24:28;1.13;;;0.13;;
36185;SDS011;22228;53.222;7.446;2022-07-23T10:27:09;1.23;;;0.30;;
36185;SDS011;22228;53.222;7.446;2022-07-23T10:29:42;0.77;;;0.30;;
36185;SDS011;22228;53.222;7.446;2022-07-23T10:32:16;0.90;;;0.30;;
36185;SDS011;22228;53.222;7.446;2022-07-23T10:34:50;0.90;;;0.30;;
36185;SDS011;22228;53.222;7.446;2022-07-23T10:37:17;0.63;;;0.30;;
36185;SDS011;22228;53.222;7.446;2022-07-23T10:39:44;0.70;;;0.30;;
36185;SDS011;22228;53.222;7.446;2022-07-23T10:42:07;0.80;;;0.37;;
36185;SDS011;22228;53.222;7.446;2022-07-23T10:44:33;1.27;;;0.30;;
36185;SDS011;22228;53.222;7.446;2022-07-23T10:47:01;1.37;;;0.30;;
36185;SDS011;22228;53.222;7.446;2022-07-23T10:49:47;0.40;;;0.27;;
36185;SDS011;22228;53.222;7.446;2022-07-23T10:52:19;1.07;;;0.20;;
36185;SDS011;22228;53.222;7.446;2022-07-23T10:54:46;3.37;;;2.17;;
36185;SDS011;22228;53.222;7.446;2022-07-23T10:57:11;0.30;;;0.30;;
36185;SDS011;22228;53.222;7.446;2022-07-23T11:02:35;0.30;;;0.10;;
36185;SDS011;22228;53.222;7.446;2022-07-23T11:05:00;0.43;;;0.23;;
36185;SDS011;22228;53.222;7.446;2022-07-23T11:07:25;0.43;;;0.23;;
36185;SDS011;22228;53.222;7.446;2022-07-23T11:09:47;0.30;;;0.30;;
36185;SDS011;22228;53.222;7.446;2022-07-23T11:14:57;1.20;;;0.30;;
36185;SDS011;22228;53.222;7.446;2022-07-23T11:17:20;0.47;;;0.30;;
36185;SDS011;22228;53.222;7.446;2022-07-23T11:22:37;0.30;;;0.30;;
36185;SDS011;22228;53.222;7.446;2022-07-23T11:25:00;0.30;;;0.23;;
36185;SDS011;22228;53.222;7.446;2022-07-23T11:27:36;1.17;;;0.20;;
36185;SDS011;22228;53.222;7.446;2022-07-23T11:29:58;0.47;;;0.27;;
36185;SDS011;22228;53.222;7.446;2022-07-23T11:32:29;0.53;;;0.30;;
36185;SDS011;22228;53.222;7.446;2022-07-23T11:34:53;0.53;;;0.37;;
36185;SDS011;22228;53.222;7.446;2022-07-23T11:37:27;1.33;;;0.40;;
36185;SDS011;22228;53.222;7.446;2022-07-23T11:39:54;0.93;;;0.30;;
36185;SDS011;22228;53.222;7.446;2022-07-23T11:42:17;1.27;;;0.40;;
36185;SDS011;22228;53.222;7.446;2022-07-23T11:44:40;0.60;;;0.30;;
36185;SDS011;22228;53.222;7.446;2022-07-23T11:47:03;0.40;;;0.30;;
36185;SDS011;22228;53.222;7.446;2022-07-23T11:49:27;0.40;;;0.40;;
36185;SDS011;22228;53.222;7.446;2022-07-23T11:52:01;0.97;;;0.30;;
36185;SDS011;22228;53.222;7.446;2022-07-23T11:54:26;0.90;;;0.40;;
36185;SDS011;22228;53.222;7.446;2022-07-23T11:56:54;0.40;;;0.30;;
36185;SDS011;22228;53.222;7.446;2022-07-23T11:59:17;1.07;;;0.40;;
36185;SDS011;22228;53.222;7.446;2022-07-23T12:01:52;0.90;;;0.30;;
36185;SDS011;22228;53.222;7.446;2022-07-23T12:04:17;1.63;;;0.40;;
36185;SDS011;22228;53.222;7.446;2022-07-23T12:06:39;3.13;;;0.33;;
36185;SDS011;22228;53.222;7.446;2022-07-23T12:09:01;1.43;;;0.30;;
36185;SDS011;22228;53.222;7.446;2022-07-23T12:11:25;0.53;;;0.30;;
36185;SDS011;22228;53.222;7.446;2022-07-23T12:13:55;1.43;;;0.40;;
36185;SDS011;22228;53.222;7.446;2022-07-23T12:16:17;1.90;;;0.33;;
36185;SDS011;22228;53.222;7.446;2022-07-23T12:18:39;1.10;;;0.37;;
36185;SDS011;22228;53.222;7.446;2022-07-23T12:21:03;1.37;;;0.30;;
36185;SDS011;22228;53.222;7.446;2022-07-23T12:23:26;0.47;;;0.30;;
36185;SDS011;22228;53.222;7.446;2022-07-23T12:25:49;0.30;;;0.30;;
36185;SDS011;22228;53.222;7.446;2022-07-23T12:28:15;0.30;;;0.30;;
36185;SDS011;22228;53.222;7.446;2022-07-23T12:30:39;1.30;;;0.30;;
36185;SDS011;22228;53.222;7.446;2022-07-23T12:33:02;0.30;;;0.30;;
36185;SDS011;22228;53.222;7.446;2022-07-23T12:35:30;0.70;;;0.30;;
36185;SDS011;22228;53.222;7.446;2022-07-23T12:37:59;2.17;;;0.40;;
36185;SDS011;22228;53.222;7.446;2022-07-23T12:40:24;1.53;;;0.30;;
36185;SDS011;22228;53.222;7.446;2022-07-23T12:42:47;1.43;;;0.30;;
36185;SDS011;22228;53.222;7.446;2022-07-23T12:45:11;0.73;;;0.40;;
36185;SDS011;22228;53.222;7.446;2022-07-23T12:47:57;0.73;;;0.37;;
36185;SDS011;22228;53.222;7.446;2022-07-23T12:50:31;0.53;;;0.40;;
36185;SDS011;22228;53.222;7.446;2022-07-23T12:53:00;1.20;;;0.30;;
36185;SDS011;22228;53.222;7.446;2022-07-23T12:55:27;1.50;;;0.30;;
36185;SDS011;22228;53.222;7.446;2022-07-23T12:57:53;1.23;;;0.50;;
36185;SDS011;22228;53.222;7.446;2022-07-23T13:00:27;0.63;;;0.30;;
36185;SDS011;22228;53.222;7.446;2022-07-23T13:02:49;1.40;;;0.40;;
36185;SDS011;22228;53.222;7.446;2022-07-23T13:05:12;1.60;;;0.50;;
36185;SDS011;22228;53.222;7.446;2022-07-23T13:07:34;1.27;;;0.40;;
36185;SDS011;22228;53.222;7.446;2022-07-23T13:09:56;0.73;;;0.40;;
36185;SDS011;22228;53.222;7.446;2022-07-23T13:12:17;2.33;;;0.60;;
36185;SDS011;22228;53.222;7.446;2022-07-23T13:14:40;1.17;;;0.43;;
36185;SDS011;22228;53.222;7.446;2022-07-23T13:17:04;1.57;;;0.40;;
36185;SDS011;22228;53.222;7.446;2022-07-23T13:19:26;1.20;;;0.50;;
36185;SDS011;22228;53.222;7.446;2022-07-23T13:21:48;0.50;;;0.40;;
36185;SDS011;22228;53.222;7.446;2022-07-23T13:24:11;1.13;;;0.40;;
36185;SDS011;22228;53.222;7.446;2022-07-23T13:26:34;1.03;;;0.40;;
36185;SDS011;22228;53.222;7.446;2022-07-23T13:28:57;1.70;;;0.60;;
36185;SDS011;22228;53.222;7.446;2022-07-23T13:31:22;0.40;;;0.40;;
36185;SDS011;22228;53.222;7.446;2022-07-23T13:33:45;0.67;;;0.30;;
36185;SDS011;22228;53.222;7.446;2022-07-23T13:36:09;1.57;;;0.60;;
36185;SDS011;22228;53.222;7.446;2022-07-23T13:38:32;1.83;;;0.60;;
36185;SDS011;22228;53.222;7.446;2022-07-23T13:40:54;2.00;;;0.60;;
36185;SDS011;22228;53.222;7.446;2022-07-23T13:43:17;2.10;;;0.50;;
36185;SDS011;22228;53.222;7.446;2022-07-23T13:45:43;0.50;;;0.50;;
36185;SDS011;22228;53.222;7.446;2022-07-23T13:48:08;0.77;;;0.60;;
36185;SDS011;22228;53.222;7.446;2022-07-23T13:50:32;1.77;;;0.53;;
36185;SDS011;22228;53.222;7.446;2022-07-23T13:52:55;1.33;;;0.50;;
36185;SDS011;22228;53.222;7.446;2022-07-23T13:55:16;1.70;;;0.43;;
36185;SDS011;22228;53.222;7.446;2022-07-23T13:57:39;1.63;;;0.40;;
36185;SDS011;22228;53.222;7.446;2022-07-23T14:00:03;0.90;;;0.47;;
36185;SDS011;22228;53.222;7.446;2022-07-23T14:02:26;2.30;;;0.70;;
36185;SDS011;22228;53.222;7.446;2022-07-23T14:04:48;2.87;;;0.80;;
36185;SDS011;22228;53.222;7.446;2022-07-23T14:07:12;0.73;;;0.50;;
36185;SDS011;22228;53.222;7.446;2022-07-23T14:09:36;1.80;;;0.70;;
36185;SDS011;22228;53.222;7.446;2022-07-23T14:11:58;0.90;;;0.50;;
36185;SDS011;22228;53.222;7.446;2022-07-23T14:14:21;1.40;;;0.70;;
36185;SDS011;22228;53.222;7.446;2022-07-23T14:16:43;0.90;;;0.60;;
36185;SDS011;22228;53.222;7.446;2022-07-23T14:19:05;0.80;;;0.70;;
36185;SDS011;22228;53.222;7.446;2022-07-23T14:21:27;2.10;;;0.50;;
36185;SDS011;22228;53.222;7.446;2022-07-23T14:23:51;0.97;;;0.50;;
36185;SDS011;22228;53.222;7.446;2022-07-23T14:26:13;0.90;;;0.50;;
36185;SDS011;22228;53.222;7.446;2022-07-23T14:28:34;1.90;;;0.50;;
36185;SDS011;22228;53.222;7.446;2022-07-23T14:30:59;2.30;;;0.60;;
36185;SDS011;22228;53.222;7.446;2022-07-23T14:33:22;1.13;;;0.50;;
36185;SDS011;22228;53.222;7.446;2022-07-23T14:35:45;0.83;;;0.40;;
36185;SDS011;22228;53.222;7.446;2022-07-23T14:38:08;1.57;;;0.50;;